createdAt,value
2022-09-12T00:00:35.382Z,1.20
2022-09-12T00:03:01.924Z,1.30
2022-09-12T00:05:28.229Z,1.20
2022-09-12T00:07:54.508Z,2.33
2022-09-12T00:10:21.032Z,1.20
2022-09-12T00:12:47.286Z,2.33
2022-09-12T00:15:13.841Z,1.60
2022-09-12T00:17:40.403Z,1.40
2022-09-12T00:20:08.661Z,1.45
2022-09-12T00:22:35.724Z,1.40
2022-09-12T00:25:02.861Z,1.30
2022-09-12T00:27:29.425Z,1.50
2022-09-12T00:29:55.703Z,1.33
2022-09-12T00:32:22.318Z,1.40
2022-09-12T00:34:48.582Z,1.62
2022-09-12T00:37:14.861Z,1.23
2022-09-12T00:39:41.470Z,1.43
2022-09-12T00:42:09.915Z,1.27
2022-09-12T00:44:36.052Z,1.20
2022-09-12T00:47:02.470Z,1.40
2022-09-12T00:49:31.601Z,1.42
2022-09-12T00:52:05.792Z,1.30
2022-09-12T00:54:36.014Z,1.10
2022-09-12T00:57:04.959Z,1.48
2022-09-12T00:59:38.508Z,1.20
2022-09-12T01:02:04.873Z,1.33
2022-09-12T01:04:31.589Z,1.33
2022-09-12T01:06:58.740Z,1.17
2022-09-12T01:09:25.742Z,1.10
2022-09-12T01:11:53.274Z,1.00
2022-09-12T01:14:20.247Z,1.58
2022-09-12T01:16:47.582Z,1.10
2022-09-12T01:19:46.282Z,1.00
2022-09-12T01:22:40.050Z,1.30
2022-09-12T01:25:25.347Z,1.40
2022-09-12T01:28:06.540Z,1.42
2022-09-12T01:30:41.916Z,1.10
2022-09-12T01:33:17.317Z,1.15
2022-09-12T01:35:46.056Z,1.12
2022-09-12T01:38:21.331Z,1.20
2022-09-12T01:41:11.652Z,1.10
2022-09-12T01:43:56.166Z,1.20
2022-09-12T01:46:37.091Z,1.27
2022-09-12T01:49:12.638Z,1.15
2022-09-12T01:51:44.740Z,0.90
2022-09-12T01:54:20.792Z,1.00
2022-09-12T01:56:50.129Z,1.00
2022-09-12T01:59:33.413Z,1.15
2022-09-12T02:02:23.885Z,1.20
2022-09-12T02:05:00.132Z,1.15
2022-09-12T02:07:48.977Z,1.00
2022-09-12T02:10:18.419Z,1.23
2022-09-12T02:12:57.711Z,1.25
2022-09-12T02:15:34.966Z,1.30
2022-09-12T02:18:02.835Z,1.10
2022-09-12T02:20:47.311Z,1.23
2022-09-12T02:23:20.474Z,0.90
2022-09-12T02:25:49.386Z,1.62
2022-09-12T02:28:19.272Z,1.17
2022-09-12T02:30:53.242Z,1.30
2022-09-12T02:33:22.415Z,1.23
2022-09-12T02:35:57.981Z,1.20
2022-09-12T02:38:38.320Z,1.45
2022-09-12T02:41:04.680Z,1.20
2022-09-12T02:43:31.252Z,1.17
2022-09-12T02:45:57.594Z,1.45
2022-09-12T02:48:27.468Z,1.10
2022-09-12T02:50:54.160Z,1.30
2022-09-12T02:53:20.714Z,1.00
2022-09-12T02:55:46.963Z,1.20
2022-09-12T02:58:18.335Z,1.42
2022-09-12T03:00:47.645Z,1.20
2022-09-12T03:03:31.314Z,1.10
2022-09-12T03:06:03.144Z,1.10
2022-09-12T03:08:29.600Z,1.12
2022-09-12T03:11:04.930Z,1.10
2022-09-12T03:13:34.380Z,1.20
2022-09-12T03:16:17.325Z,1.35
2022-09-12T03:18:46.991Z,1.10
2022-09-12T03:21:34.163Z,1.17
2022-09-12T03:24:06.882Z,1.20
2022-09-12T03:26:40.528Z,1.10
2022-09-12T03:29:07.929Z,1.10
2022-09-12T03:31:34.216Z,2.10
2022-09-12T03:34:00.954Z,1.20
2022-09-12T03:36:29.686Z,1.00
2022-09-12T03:38:56.074Z,1.20
2022-09-12T03:41:22.528Z,1.10
2022-09-12T03:43:49.062Z,1.10
2022-09-12T03:46:15.329Z,1.02
2022-09-12T03:48:41.899Z,2.40
2022-09-12T03:51:10.325Z,1.23
2022-09-12T03:53:36.632Z,0.90
2022-09-12T03:56:10.077Z,1.15
2022-09-12T03:58:37.273Z,0.90
2022-09-12T04:01:12.039Z,1.00
2022-09-12T04:03:40.275Z,0.97
2022-09-12T04:06:07.783Z,1.23
2022-09-12T04:08:35.420Z,1.20
2022-09-12T04:11:11.149Z,1.10
2022-09-12T04:13:38.312Z,1.00
2022-09-12T04:16:05.606Z,1.17
2022-09-12T04:18:32.032Z,1.60
2022-09-12T04:20:58.486Z,1.00
2022-09-12T04:23:25.088Z,1.15
2022-09-12T04:25:55.754Z,1.05
2022-09-12T04:28:22.224Z,1.17
2022-09-12T04:30:48.755Z,1.10
2022-09-12T04:33:15.130Z,1.05
2022-09-12T04:35:41.695Z,0.95
2022-09-12T04:38:08.196Z,1.33
2022-09-12T04:40:34.612Z,0.80
2022-09-12T04:43:01.063Z,0.90
2022-09-12T04:45:27.755Z,1.00
2022-09-12T04:47:53.999Z,0.93
2022-09-12T04:50:20.290Z,1.60
2022-09-12T04:52:51.195Z,1.00
2022-09-12T04:55:17.475Z,1.00
2022-09-12T04:57:43.729Z,0.95
2022-09-12T05:00:13.519Z,1.37
2022-09-12T05:02:40.601Z,0.70
2022-09-12T05:05:07.499Z,1.00
2022-09-12T05:07:34.118Z,1.25
2022-09-12T05:10:00.502Z,1.20
2022-09-12T05:12:27.772Z,1.10
2022-09-12T05:14:54.282Z,1.05
2022-09-12T05:17:20.516Z,1.10
2022-09-12T05:19:47.955Z,0.90
2022-09-12T05:22:14.477Z,1.02
2022-09-12T05:24:47.274Z,1.00
2022-09-12T05:27:17.081Z,1.23
2022-09-12T05:29:43.789Z,1.00
2022-09-12T05:32:10.110Z,1.10
2022-09-12T05:34:37.958Z,1.10
2022-09-12T05:37:04.892Z,1.12
2022-09-12T05:39:31.118Z,0.90
2022-09-12T05:41:57.753Z,1.93
2022-09-12T05:44:27.183Z,1.10
2022-09-12T05:46:54.587Z,1.00
2022-09-12T05:49:21.623Z,1.10
2022-09-12T05:51:48.012Z,1.00
2022-09-12T05:54:17.331Z,1.20
2022-09-12T05:56:53.774Z,1.10
2022-09-12T05:59:21.344Z,1.10
2022-09-12T06:01:48.647Z,1.20
2022-09-12T06:04:15.889Z,1.20
2022-09-12T06:06:45.192Z,1.17
2022-09-12T06:09:13.131Z,1.30
2022-09-12T06:11:43.464Z,1.10
2022-09-12T06:14:11.418Z,1.40
2022-09-12T06:16:37.936Z,1.20
2022-09-12T06:19:07.396Z,1.33
2022-09-12T06:21:35.472Z,1.17
2022-09-12T06:24:02.264Z,1.12
2022-09-12T06:26:29.251Z,1.37
2022-09-12T06:28:56.996Z,1.65
2022-09-12T06:31:29.175Z,1.20
2022-09-12T06:33:57.190Z,1.00
2022-09-12T06:36:25.925Z,1.48
2022-09-12T06:39:04.445Z,1.30
2022-09-12T06:41:32.012Z,1.20
2022-09-12T06:43:59.187Z,1.13
2022-09-12T06:46:28.772Z,1.25
2022-09-12T06:49:00.584Z,1.23
2022-09-12T06:51:29.706Z,1.35
2022-09-12T06:53:57.125Z,1.05
2022-09-12T06:56:26.352Z,1.87
2022-09-12T06:58:54.569Z,1.67
2022-09-12T07:01:26.436Z,1.40
2022-09-12T07:03:55.910Z,1.25
2022-09-12T07:06:24.441Z,2.05
2022-09-12T07:08:50.830Z,1.40
2022-09-12T07:11:26.571Z,1.40
2022-09-12T07:13:54.914Z,1.60
2022-09-12T07:16:21.199Z,1.48
2022-09-12T07:18:51.661Z,1.40
2022-09-12T07:21:18.805Z,1.47
2022-09-12T07:23:45.730Z,1.58
2022-09-12T07:26:13.565Z,1.80
2022-09-12T07:28:40.698Z,1.70
2022-09-12T07:31:09.412Z,1.85
2022-09-12T07:33:36.191Z,2.07
2022-09-12T07:36:05.804Z,2.10
2022-09-12T07:38:32.379Z,2.10
2022-09-12T07:40:58.983Z,2.28
2022-09-12T07:43:25.524Z,2.28
2022-09-12T07:45:56.691Z,2.43
2022-09-12T07:48:23.370Z,2.10
2022-09-12T07:51:06.340Z,2.20
2022-09-12T07:53:35.413Z,2.28
2022-09-12T07:56:03.120Z,2.28
2022-09-12T07:58:30.908Z,3.10
2022-09-12T08:01:07.255Z,2.30
2022-09-12T08:03:35.131Z,2.35
2022-09-12T08:06:08.315Z,2.20
2022-09-12T08:08:35.421Z,2.58
2022-09-12T08:11:03.849Z,2.20
2022-09-12T08:13:30.499Z,2.30
2022-09-12T08:16:01.094Z,2.40
2022-09-12T08:18:28.953Z,2.40
2022-09-12T08:20:59.651Z,2.30
2022-09-12T08:23:28.817Z,2.40
2022-09-12T08:26:05.735Z,2.20
2022-09-12T08:28:40.505Z,2.40
2022-09-12T08:31:09.607Z,2.30
2022-09-12T08:33:43.361Z,2.30
2022-09-12T08:36:14.195Z,2.50
2022-09-12T08:38:45.210Z,2.50
2022-09-12T08:41:48.910Z,2.30
2022-09-12T08:44:47.042Z,2.30
2022-09-12T08:47:19.782Z,2.58
2022-09-12T08:50:08.182Z,2.30
2022-09-12T08:53:12.208Z,2.40
2022-09-12T08:55:45.616Z,3.35
2022-09-12T08:58:17.084Z,3.20
2022-09-12T09:00:56.046Z,2.30
2022-09-12T09:03:46.717Z,2.70
2022-09-12T09:06:38.948Z,2.37
2022-09-12T09:09:10.464Z,2.75
2022-09-12T09:11:43.073Z,2.53
2022-09-12T09:14:51.945Z,2.30
2022-09-12T09:17:33.853Z,2.30
2022-09-12T09:20:22.805Z,3.22
2022-09-12T09:23:06.831Z,2.10
2022-09-12T09:25:53.769Z,2.35
2022-09-12T09:28:24.236Z,2.10
2022-09-12T09:30:53.800Z,2.10
2022-09-12T09:33:26.814Z,2.00
2022-09-12T09:36:00.430Z,2.10
2022-09-12T09:38:39.808Z,2.00
2022-09-12T09:41:18.771Z,2.17
2022-09-12T09:43:45.945Z,2.03
2022-09-12T09:46:16.129Z,2.10
2022-09-12T09:48:46.215Z,2.10
2022-09-12T09:51:15.050Z,2.00
2022-09-12T09:53:47.871Z,1.87
2022-09-12T09:56:28.202Z,1.70
2022-09-12T09:58:54.672Z,1.77
2022-09-12T10:01:21.786Z,1.85
2022-09-12T10:03:54.744Z,1.92
2022-09-12T10:06:40.172Z,1.80
2022-09-12T10:09:13.177Z,1.90
2022-09-12T10:11:43.683Z,2.30
2022-09-12T10:14:38.985Z,1.90
2022-09-12T10:17:34.102Z,2.10
2022-09-12T10:20:20.388Z,2.20
2022-09-12T10:22:47.994Z,2.20
2022-09-12T10:25:18.413Z,2.35
2022-09-12T10:27:44.649Z,2.12
2022-09-12T10:30:19.706Z,1.90
2022-09-12T10:32:50.827Z,2.10
2022-09-12T10:35:20.111Z,2.00
2022-09-12T10:37:54.539Z,2.00
2022-09-12T10:40:27.857Z,2.00
2022-09-12T10:42:57.346Z,2.40
2022-09-12T10:45:37.971Z,2.10
2022-09-12T10:48:28.394Z,2.03
2022-09-12T10:50:54.725Z,2.08
2022-09-12T10:53:48.942Z,2.10
2022-09-12T10:57:03.506Z,2.20
2022-09-12T10:59:45.045Z,2.30
2022-09-12T11:02:29.110Z,2.30
2022-09-12T11:05:29.399Z,2.30
2022-09-12T11:08:01.565Z,2.30
2022-09-12T11:11:14.938Z,2.30
2022-09-12T11:14:09.176Z,2.40
2022-09-12T11:16:59.415Z,2.30
2022-09-12T11:19:47.123Z,2.20
2022-09-12T11:22:50.267Z,2.20
2022-09-12T11:25:38.673Z,2.20
2022-09-12T11:28:26.271Z,2.20
2022-09-12T11:31:11.650Z,2.33
2022-09-12T11:33:44.123Z,2.10
2022-09-12T11:36:28.581Z,2.25
2022-09-12T11:39:03.996Z,2.20
2022-09-12T11:41:33.808Z,2.30
2022-09-12T11:44:18.284Z,2.20
2022-09-12T11:46:48.721Z,3.28
2022-09-12T11:49:41.670Z,2.20
2022-09-12T11:52:13.715Z,2.30
2022-09-12T11:54:49.048Z,2.92
2022-09-12T11:57:25.292Z,2.80
2022-09-12T11:59:58.653Z,2.60
2022-09-12T12:02:37.114Z,2.85
2022-09-12T12:05:06.911Z,2.50
2022-09-12T12:07:45.754Z,2.87
2022-09-12T12:10:38.448Z,2.20
2022-09-12T12:13:18.419Z,2.30
2022-09-12T12:16:00.946Z,2.45
2022-09-12T12:18:29.054Z,2.40
2022-09-12T12:20:56.337Z,2.40
2022-09-12T12:23:28.471Z,2.40
2022-09-12T12:25:56.902Z,2.30
2022-09-12T12:28:41.765Z,2.30
2022-09-12T12:31:09.891Z,2.30
2022-09-12T12:33:39.526Z,2.40
2022-09-12T12:36:08.700Z,2.30
2022-09-12T12:38:38.986Z,2.87
2022-09-12T12:41:17.847Z,2.30
2022-09-12T12:43:52.416Z,2.50
2022-09-12T12:46:20.637Z,2.33
2022-09-12T12:48:52.295Z,2.30
2022-09-12T12:51:24.744Z,2.40
2022-09-12T12:53:51.921Z,2.28
2022-09-12T12:56:44.867Z,2.50
2022-09-12T12:59:23.200Z,2.20
2022-09-12T13:01:55.379Z,2.20
2022-09-12T13:04:27.294Z,2.20
2022-09-12T13:07:08.370Z,2.20
2022-09-12T13:09:44.583Z,2.10
2022-09-12T13:12:30.668Z,2.20
2022-09-12T13:15:01.945Z,2.23
2022-09-12T13:17:42.543Z,2.40
2022-09-12T13:20:28.409Z,2.10
2022-09-12T13:22:56.699Z,2.10
2022-09-12T13:25:31.860Z,2.20
2022-09-12T13:27:59.904Z,2.10
2022-09-12T13:30:27.411Z,2.10
2022-09-12T13:32:53.904Z,2.10
2022-09-12T13:35:38.605Z,2.10
2022-09-12T13:38:16.043Z,2.00
2022-09-12T13:41:04.812Z,2.10
2022-09-12T13:43:42.477Z,2.00
2022-09-12T13:46:12.841Z,2.10
2022-09-12T13:48:39.468Z,2.22
2022-09-12T13:51:06.128Z,2.28
2022-09-12T13:53:42.500Z,2.07
2022-09-12T13:56:08.766Z,2.00
2022-09-12T13:58:35.394Z,2.00
2022-09-12T14:01:07.682Z,2.10
2022-09-12T14:03:59.190Z,2.10
2022-09-12T14:06:27.663Z,1.90
2022-09-12T14:08:58.630Z,2.00
2022-09-12T14:11:30.483Z,2.20
2022-09-12T14:13:57.590Z,1.95
2022-09-12T14:16:27.293Z,2.10
2022-09-12T14:18:54.307Z,2.10
2022-09-12T14:21:35.466Z,2.10
2022-09-12T14:24:03.549Z,2.05
2022-09-12T14:26:32.492Z,1.90
2022-09-12T14:28:59.276Z,2.00
2022-09-12T14:31:36.675Z,1.90
2022-09-12T14:34:17.646Z,1.70
2022-09-12T14:36:52.279Z,1.70
2022-09-12T14:39:43.173Z,1.80
2022-09-12T14:42:12.339Z,1.80
2022-09-12T14:44:39.369Z,1.80
2022-09-12T14:47:14.358Z,1.90
2022-09-12T14:49:41.157Z,1.85
2022-09-12T14:52:21.660Z,1.90
2022-09-12T14:55:16.207Z,1.80
2022-09-12T14:57:44.482Z,1.80
2022-09-12T15:00:14.004Z,1.80
2022-09-12T15:02:41.791Z,1.70
2022-09-12T15:05:08.006Z,1.60
2022-09-12T15:07:40.568Z,1.70
2022-09-12T15:10:25.458Z,1.63
2022-09-12T15:13:16.981Z,1.70
2022-09-12T15:15:51.344Z,1.70
2022-09-12T15:18:19.617Z,1.90
2022-09-12T15:20:47.939Z,1.70
2022-09-12T15:23:41.563Z,1.90
2022-09-12T15:26:11.399Z,1.70
2022-09-12T15:28:37.699Z,1.83
2022-09-12T15:31:13.059Z,1.83
2022-09-12T15:33:39.675Z,1.80
2022-09-12T15:36:13.273Z,1.60
2022-09-12T15:38:39.811Z,1.60
2022-09-12T15:41:13.899Z,1.50
2022-09-12T15:43:40.640Z,1.60
2022-09-12T15:46:06.959Z,1.60
2022-09-12T15:48:33.438Z,1.90
2022-09-12T15:51:01.689Z,1.80
2022-09-12T15:53:28.344Z,2.10
2022-09-12T15:55:54.568Z,1.70
2022-09-12T15:58:21.169Z,1.62
2022-09-12T16:00:47.390Z,2.00
2022-09-12T16:03:23.432Z,1.70
2022-09-12T16:05:51.082Z,1.60
2022-09-12T16:08:17.727Z,1.55
2022-09-12T16:10:44.340Z,1.40
2022-09-12T16:13:10.636Z,1.80
2022-09-12T16:15:37.931Z,1.60
2022-09-12T16:18:04.291Z,2.25
2022-09-12T16:20:30.525Z,2.05
2022-09-12T16:22:57.184Z,2.42
2022-09-12T16:25:23.427Z,1.60
2022-09-12T16:27:50.027Z,1.77
2022-09-12T16:30:16.753Z,2.65
2022-09-12T16:32:43.006Z,1.40
2022-09-12T16:35:09.771Z,1.33
2022-09-12T16:37:36.482Z,1.30
2022-09-12T16:40:04.444Z,1.33
2022-09-12T16:42:30.882Z,3.00
2022-09-12T16:44:57.722Z,1.50
2022-09-12T16:47:23.990Z,1.30
2022-09-12T16:49:51.307Z,1.80
2022-09-12T16:52:18.764Z,1.60
2022-09-12T16:54:45.227Z,1.40
2022-09-12T16:57:11.682Z,1.20
2022-09-12T16:59:38.285Z,1.40
2022-09-12T17:02:04.589Z,1.50
2022-09-12T17:04:30.871Z,1.33
2022-09-12T17:06:59.400Z,1.35
2022-09-12T17:09:25.812Z,1.50
2022-09-12T17:11:53.175Z,1.40
2022-09-12T17:14:19.721Z,1.30
2022-09-12T17:16:51.531Z,1.40
2022-09-12T17:19:27.960Z,1.40
2022-09-12T17:21:54.789Z,1.30
2022-09-12T17:24:21.125Z,1.37
2022-09-12T17:26:47.435Z,1.20
2022-09-12T17:29:14.701Z,1.10
2022-09-12T17:31:41.751Z,1.40
2022-09-12T17:34:08.400Z,1.45
2022-09-12T17:36:35.157Z,1.30
2022-09-12T17:39:03.697Z,1.17
2022-09-12T17:41:33.814Z,1.33
2022-09-12T17:44:01.310Z,1.20
2022-09-12T17:46:33.468Z,1.30
2022-09-12T17:49:01.018Z,1.10
2022-09-12T17:51:30.591Z,1.40
2022-09-12T17:54:02.130Z,1.50
2022-09-12T17:56:30.929Z,1.20
2022-09-12T17:58:58.407Z,1.10
2022-09-12T18:01:44.510Z,2.50
2022-09-12T18:04:11.223Z,2.20
2022-09-12T18:06:37.730Z,1.30
2022-09-12T18:09:05.946Z,2.55
2022-09-12T18:11:32.973Z,1.60
2022-09-12T18:13:59.771Z,1.30
2022-09-12T18:16:26.737Z,1.57
2022-09-12T18:18:53.248Z,1.50
2022-09-12T18:21:19.858Z,1.37
2022-09-12T18:23:46.900Z,1.40
2022-09-12T18:26:13.798Z,1.50
2022-09-12T18:28:42.384Z,1.10
2022-09-12T18:31:17.483Z,1.70
2022-09-12T18:33:44.363Z,1.02
2022-09-12T18:36:12.068Z,1.23
2022-09-12T18:38:38.940Z,1.00
2022-09-12T18:41:11.210Z,1.57
2022-09-12T18:43:37.837Z,1.12
2022-09-12T18:46:06.223Z,1.20
2022-09-12T18:48:33.190Z,1.30
2022-09-12T18:51:12.141Z,1.08
2022-09-12T18:53:39.249Z,1.20
2022-09-12T18:56:10.747Z,1.20
2022-09-12T18:58:38.529Z,1.35
2022-09-12T19:01:13.540Z,1.10
2022-09-12T19:03:40.318Z,1.30
2022-09-12T19:06:08.828Z,1.80
2022-09-12T19:08:36.261Z,1.15
2022-09-12T19:11:03.234Z,1.50
2022-09-12T19:13:30.038Z,1.20
2022-09-12T19:15:56.357Z,1.30
2022-09-12T19:18:22.590Z,1.43
2022-09-12T19:20:52.781Z,1.70
2022-09-12T19:23:19.194Z,1.25
2022-09-12T19:25:45.595Z,1.20
2022-09-12T19:28:12.352Z,1.52
2022-09-12T19:30:46.643Z,1.60
2022-09-12T19:33:13.206Z,1.20
2022-09-12T19:35:39.673Z,1.58
2022-09-12T19:38:05.902Z,1.77
2022-09-12T19:40:32.430Z,1.58
2022-09-12T19:42:58.651Z,5.47
2022-09-12T19:45:24.906Z,1.50
2022-09-12T19:47:51.747Z,1.40
2022-09-12T19:50:18.040Z,1.55
2022-09-12T19:52:44.270Z,1.20
2022-09-12T19:55:10.859Z,1.33
2022-09-12T19:57:37.076Z,1.27
2022-09-12T20:00:05.870Z,1.50
2022-09-12T20:02:32.219Z,1.80
2022-09-12T20:04:58.776Z,1.40
2022-09-12T20:07:25.039Z,1.40
2022-09-12T20:09:51.274Z,1.37
2022-09-12T20:12:17.937Z,1.40
2022-09-12T20:14:44.351Z,1.30
2022-09-12T20:17:10.586Z,1.50
2022-09-12T20:19:37.287Z,1.93
2022-09-12T20:22:03.881Z,1.52
2022-09-12T20:24:30.158Z,1.67
2022-09-12T20:26:57.592Z,1.50
2022-09-12T20:29:26.071Z,1.20
2022-09-12T20:31:52.352Z,1.20
2022-09-12T20:34:20.440Z,1.10
2022-09-12T20:36:47.637Z,1.10
2022-09-12T20:39:16.840Z,1.12
2022-09-12T20:41:43.469Z,1.23
2022-09-12T20:44:10.053Z,1.00
2022-09-12T20:46:36.500Z,1.00
2022-09-12T20:49:03.203Z,1.73
2022-09-12T20:51:30.418Z,1.65
2022-09-12T20:53:58.879Z,1.02
2022-09-12T20:56:27.093Z,1.33
2022-09-12T20:58:54.733Z,1.25
2022-09-12T21:01:21.243Z,1.33
2022-09-12T21:03:48.448Z,1.30
2022-09-12T21:06:18.512Z,1.08
2022-09-12T21:08:46.091Z,1.20
2022-09-12T21:11:12.903Z,1.30
2022-09-12T21:13:39.434Z,1.25
2022-09-12T21:16:15.022Z,1.00
2022-09-12T21:18:41.716Z,1.25
2022-09-12T21:21:09.995Z,1.60
2022-09-12T21:23:36.226Z,1.08
2022-09-12T21:26:03.538Z,1.00
2022-09-12T21:28:30.027Z,1.10
2022-09-12T21:30:56.464Z,1.30
2022-09-12T21:33:23.479Z,1.20
2022-09-12T21:35:50.128Z,1.00
2022-09-12T21:38:17.127Z,1.23
2022-09-12T21:40:43.673Z,1.20
2022-09-12T21:43:12.688Z,1.00
2022-09-12T21:45:39.639Z,1.03
2022-09-12T21:48:06.162Z,1.25
2022-09-12T21:50:32.401Z,1.10
2022-09-12T21:52:58.699Z,1.35
2022-09-12T21:55:27.137Z,2.47
2022-09-12T21:57:54.250Z,1.03
2022-09-12T22:00:20.630Z,1.20
2022-09-12T22:02:48.329Z,1.00
2022-09-12T22:05:15.048Z,1.10
2022-09-12T22:07:41.291Z,1.00
2022-09-12T22:10:08.162Z,0.90
2022-09-12T22:12:34.394Z,2.00
2022-09-12T22:15:12.750Z,1.15
2022-09-12T22:17:44.219Z,1.10
2022-09-12T22:20:11.222Z,1.10
2022-09-12T22:22:56.680Z,1.20
2022-09-12T22:25:26.444Z,1.10
2022-09-12T22:27:53.074Z,1.25
2022-09-12T22:30:20.913Z,1.12
2022-09-12T22:32:51.106Z,1.00
2022-09-12T22:35:18.440Z,1.57
2022-09-12T22:37:44.791Z,1.12
2022-09-12T22:40:11.898Z,1.00
2022-09-12T22:42:38.687Z,1.10
2022-09-12T22:45:05.870Z,1.20
2022-09-12T22:47:32.376Z,1.20
2022-09-12T22:49:58.833Z,1.30
2022-09-12T22:52:25.072Z,1.12
2022-09-12T22:54:51.587Z,1.02
2022-09-12T22:57:18.063Z,1.10
2022-09-12T22:59:44.291Z,1.40
2022-09-12T23:02:10.802Z,1.00
2022-09-12T23:04:37.125Z,1.10
2022-09-12T23:07:03.495Z,1.00
2022-09-12T23:09:34.660Z,0.98
2022-09-12T23:12:01.699Z,0.90
2022-09-12T23:14:27.939Z,1.55
2022-09-12T23:16:54.464Z,1.10
2022-09-12T23:19:20.850Z,0.85
2022-09-12T23:21:47.105Z,1.00
2022-09-12T23:24:13.676Z,0.90
2022-09-12T23:26:39.902Z,0.90
2022-09-12T23:29:06.780Z,1.00
2022-09-12T23:31:33.835Z,1.02
2022-09-12T23:34:02.089Z,1.00
2022-09-12T23:36:28.883Z,0.80
2022-09-12T23:38:55.627Z,0.80
2022-09-12T23:41:22.447Z,0.80
2022-09-12T23:43:48.788Z,0.88
2022-09-12T23:46:16.763Z,0.75
2022-09-12T23:48:43.491Z,1.00
2022-09-12T23:51:10.577Z,0.70
2022-09-12T23:53:37.606Z,1.00
2022-09-12T23:56:04.661Z,1.80
2022-09-12T23:58:31.034Z,2.00
